Time;durP1;ratioP1;P1;durP2;ratioP2;P2;SDS_P1;SDS_P2;PMS_P1;PMS_P2;Temp;Humidity;BMP_temperature;BMP_pressure;BME280_temperature;BME280_humidity;BME280_pressure;Samples;Min_cycle;Max_cycle;Signal;HPM_P1;HPM_P2
2023/06/03 00:00:20;;;;;;;;;;;15.70;99.90;;;;;;7332957;19;111109;-75
2023/06/03 00:02:49;;;;;;;;;;;15.80;99.90;;;;;;7338517;19;110251;-74
2023/06/03 00:05:17;;;;;;;;;;;15.80;99.90;;;;;;7332624;19;111802;-74
2023/06/03 00:07:45;;;;;;;;;;;15.80;99.90;;;;;;7336937;19;109983;-74
2023/06/03 00:10:12;;;;;;;;;;;15.70;99.90;;;;;;7331437;19;109661;-73
2023/06/03 00:12:39;;;;;;;;;;;15.70;99.90;;;;;;7337143;19;110431;-75
2023/06/03 00:15:07;;;;;;;;;;;15.60;99.90;;;;;;7334988;19;110412;-78
2023/06/03 00:17:34;;;;;;;;;;;15.50;99.90;;;;;;7343345;19;110033;-76
2023/06/03 00:20:09;;;;;;;;;;;15.40;99.90;;;;;;7335660;19;110424;-76
2023/06/03 00:22:37;;;;;;;;;;;15.40;99.90;;;;;;7336821;19;109933;-75
2023/06/03 00:25:06;;;;;;;;;;;15.40;99.90;;;;;;7336645;19;109354;-78
2023/06/03 00:27:34;;;;;;;;;;;15.40;99.90;;;;;;7338794;19;111213;-77
2023/06/03 00:30:02;;;;;;;;;;;15.30;99.90;;;;;;7337745;19;111988;-75
2023/06/03 00:32:29;;;;;;;;;;;15.20;99.90;;;;;;7332028;19;112825;-75
2023/06/03 00:34:56;;;;;;;;;;;15.20;99.90;;;;;;7335774;19;112285;-74
2023/06/03 00:37:23;;;;;;;;;;;15.10;99.90;;;;;;7338113;19;111485;-74
2023/06/03 00:39:50;;;;;;;;;;;15.10;99.90;;;;;;7340681;19;110135;-74
2023/06/03 00:42:17;;;;;;;;;;;15.10;99.90;;;;;;7334763;19;110674;-74
2023/06/03 00:44:44;;;;;;;;;;;15.00;99.90;;;;;;7338692;19;109610;-74
2023/06/03 00:47:11;;;;;;;;;;;15.00;99.90;;;;;;7334280;19;110793;-74
2023/06/03 00:49:38;;;;;;;;;;;14.90;99.90;;;;;;7331472;19;109836;-74
2023/06/03 00:52:06;;;;;;;;;;;14.90;99.90;;;;;;7333619;19;109643;-74
2023/06/03 00:54:33;;;;;;;;;;;14.90;99.90;;;;;;7330927;19;110922;-74
2023/06/03 00:57:02;;;;;;;;;;;14.90;99.90;;;;;;7338205;19;112236;-90
2023/06/03 00:59:29;;;;;;;;;;;14.90;99.90;;;;;;7340268;19;110037;-91
2023/06/03 01:01:56;;;;;;;;;;;14.90;99.90;;;;;;7340238;19;110430;-90
2023/06/03 01:04:25;;;;;;;;;;;14.80;99.90;;;;;;7339326;19;109415;-91
2023/06/03 01:07:00;;;;;;;;;;;14.80;99.90;;;;;;7339155;19;113716;-91
2023/06/03 01:09:37;;;;;;;;;;;14.80;99.90;;;;;;7336787;19;111503;-91
2023/06/03 01:12:27;;;;;;;;;;;14.70;99.90;;;;;;7340489;19;110525;-91
2023/06/03 01:14:57;;;;;;;;;;;14.80;99.90;;;;;;7339834;19;111492;-92
2023/06/03 01:17:36;;;;;;;;;;;14.70;99.90;;;;;;7340274;19;110581;-90
2023/06/03 01:20:04;;;;;;;;;;;14.70;99.90;;;;;;7340314;19;112752;-91
2023/06/03 01:22:36;;;;;;;;;;;14.70;99.90;;;;;;7343360;19;114382;-91
2023/06/03 01:25:04;;;;;;;;;;;14.60;99.90;;;;;;7337428;19;113110;-92
2023/06/03 01:27:32;;;;;;;;;;;14.60;99.90;;;;;;7338762;19;111645;-91
2023/06/03 01:29:59;;;;;;;;;;;14.60;99.90;;;;;;7336761;19;110653;-90
2023/06/03 01:32:30;;;;;;;;;;;14.60;99.90;;;;;;7336331;19;110471;-89
2023/06/03 01:34:58;;;;;;;;;;;14.50;99.90;;;;;;7338731;19;113754;-91
2023/06/03 01:37:29;;;;;;;;;;;14.50;99.90;;;;;;7337335;19;111137;-91
2023/06/03 01:39:56;;;;;;;;;;;14.50;99.90;;;;;;7336842;19;110882;-90
2023/06/03 01:42:23;;;;;;;;;;;14.50;99.90;;;;;;7339518;19;111400;-91
2023/06/03 01:44:51;;;;;;;;;;;14.40;99.90;;;;;;7343414;19;110904;-90
2023/06/03 01:47:19;;;;;;;;;;;14.40;99.90;;;;;;7336366;19;114320;-90
2023/06/03 01:49:49;;;;;;;;;;;14.40;99.90;;;;;;7332304;19;118419;-89
2023/06/03 01:52:16;;;;;;;;;;;14.40;99.90;;;;;;7337912;19;110513;-89
2023/06/03 01:54:44;;;;;;;;;;;14.40;99.90;;;;;;7333129;19;111751;-90
2023/06/03 01:57:11;;;;;;;;;;;14.40;99.90;;;;;;7337409;19;111555;-88
2023/06/03 01:59:38;;;;;;;;;;;14.30;99.90;;;;;;7337838;19;110970;-90
2023/06/03 02:02:05;;;;;;;;;;;14.30;99.90;;;;;;7335270;19;111151;-90
2023/06/03 02:04:33;;;;;;;;;;;14.40;99.90;;;;;;7335797;19;109778;-90
2023/06/03 02:07:00;;;;;;;;;;;14.30;99.90;;;;;;7345029;19;110416;-90
2023/06/03 02:09:27;;;;;;;;;;;14.30;99.90;;;;;;7334142;19;110192;-89
2023/06/03 02:11:59;;;;;;;;;;;14.30;99.90;;;;;;7335399;19;112763;-90
2023/06/03 02:14:27;;;;;;;;;;;14.30;99.90;;;;;;7333214;19;113759;-89
2023/06/03 02:16:58;;;;;;;;;;;14.30;99.90;;;;;;7336001;19;109241;-90
2023/06/03 02:19:26;;;;;;;;;;;14.30;99.90;;;;;;7333584;19;112185;-90
2023/06/03 02:21:56;;;;;;;;;;;14.20;99.90;;;;;;7334083;19;112906;-91
2023/06/03 02:24:23;;;;;;;;;;;14.20;99.90;;;;;;7340024;19;110558;-90
2023/06/03 02:26:52;;;;;;;;;;;14.20;99.90;;;;;;7337182;19;111040;-91
2023/06/03 02:29:22;;;;;;;;;;;14.10;99.90;;;;;;7341099;19;110683;-89
2023/06/03 02:31:50;;;;;;;;;;;14.10;99.90;;;;;;7339333;19;110174;-90
2023/06/03 02:34:17;;;;;;;;;;;14.10;99.90;;;;;;7335245;19;112050;-89
2023/06/03 02:36:44;;;;;;;;;;;14.00;99.90;;;;;;7333488;19;112347;-89
2023/06/03 02:39:12;;;;;;;;;;;14.00;99.90;;;;;;7332607;19;113339;-90
2023/06/03 02:41:40;;;;;;;;;;;13.90;99.90;;;;;;7336969;19;111916;-90
2023/06/03 02:44:10;;;;;;;;;;;14.00;99.90;;;;;;7337964;19;112800;-90
2023/06/03 02:46:37;;;;;;;;;;;14.00;99.90;;;;;;7333622;19;110775;-91
2023/06/03 02:49:05;;;;;;;;;;;13.90;99.90;;;;;;7340046;19;112315;-91
2023/06/03 02:51:33;;;;;;;;;;;13.90;99.90;;;;;;7344040;19;110086;-90
2023/06/03 02:54:00;;;;;;;;;;;13.90;99.90;;;;;;7334763;19;111025;-88
2023/06/03 02:56:28;;;;;;;;;;;13.90;99.90;;;;;;7338823;19;110045;-90
2023/06/03 02:58:55;;;;;;;;;;;13.90;99.90;;;;;;7334857;19;109641;-90
2023/06/03 03:01:22;;;;;;;;;;;13.80;99.90;;;;;;7333605;19;111272;-90
2023/06/03 03:03:49;;;;;;;;;;;13.80;99.90;;;;;;7336785;19;109435;-90
2023/06/03 03:06:19;;;;;;;;;;;13.80;99.90;;;;;;7328016;19;112691;-74
2023/06/03 03:08:50;;;;;;;;;;;13.70;99.90;;;;;;7325879;19;111294;-73
2023/06/03 03:11:17;;;;;;;;;;;13.70;99.90;;;;;;7331446;19;111461;-73
2023/06/03 03:13:44;;;;;;;;;;;13.70;99.90;;;;;;7327480;19;110890;-74
2023/06/03 03:16:12;;;;;;;;;;;13.70;99.90;;;;;;7319880;19;111195;-74
2023/06/03 03:18:39;;;;;;;;;;;13.70;99.90;;;;;;7329853;19;110370;-74
2023/06/03 03:21:06;;;;;;;;;;;13.60;99.90;;;;;;7326022;19;111433;-73
2023/06/03 03:23:33;;;;;;;;;;;13.60;99.90;;;;;;7325530;19;109700;-74
2023/06/03 03:26:01;;;;;;;;;;;13.60;99.90;;;;;;7330731;19;110123;-75
2023/06/03 03:28:28;;;;;;;;;;;13.60;99.90;;;;;;7330391;19;111942;-74
2023/06/03 03:30:55;;;;;;;;;;;13.50;99.90;;;;;;7329764;19;110168;-74
2023/06/03 03:33:22;;;;;;;;;;;13.50;99.90;;;;;;7339286;19;111830;-74
2023/06/03 03:35:50;;;;;;;;;;;13.50;99.90;;;;;;7337357;19;110591;-74
2023/06/03 03:38:17;;;;;;;;;;;13.50;99.90;;;;;;7335021;19;109717;-73
2023/06/03 03:40:44;;;;;;;;;;;13.50;99.90;;;;;;7336686;19;110130;-75
2023/06/03 03:43:15;;;;;;;;;;;13.50;99.90;;;;;;7337932;19;109846;-74
2023/06/03 03:45:42;;;;;;;;;;;13.50;99.90;;;;;;7333200;19;111213;-74
2023/06/03 03:48:12;;;;;;;;;;;13.40;99.90;;;;;;7338723;19;110121;-74
2023/06/03 03:50:40;;;;;;;;;;;13.40;99.90;;;;;;7327178;19;109693;-74
2023/06/03 03:53:14;;;;;;;;;;;13.40;99.90;;;;;;7335631;19;110386;-74
2023/06/03 03:55:44;;;;;;;;;;;13.40;99.90;;;;;;7341735;19;113923;-74
2023/06/03 03:58:14;;;;;;;;;;;13.40;99.90;;;;;;7335049;19;109695;-73
2023/06/03 04:00:43;;;;;;;;;;;13.40;99.90;;;;;;7331467;19;112340;-72
2023/06/03 04:03:13;;;;;;;;;;;13.40;99.90;;;;;;7333542;19;109463;-71
2023/06/03 04:05:43;;;;;;;;;;;13.50;99.90;;;;;;7334581;19;110517;-72
2023/06/03 04:08:12;;;;;;;;;;;13.50;99.90;;;;;;7335987;19;110293;-72
2023/06/03 04:10:40;;;;;;;;;;;13.50;99.90;;;;;;7334177;19;110571;-73
2023/06/03 04:13:07;;;;;;;;;;;13.50;99.90;;;;;;7339083;19;109764;-73
2023/06/03 04:15:34;;;;;;;;;;;13.50;99.90;;;;;;7334481;19;110260;-73
2023/06/03 04:18:01;;;;;;;;;;;13.50;99.90;;;;;;7340646;19;109759;-74
2023/06/03 04:20:31;;;;;;;;;;;13.50;99.90;;;;;;7332338;19;110859;-74
2023/06/03 04:23:03;;;;;;;;;;;13.50;99.90;;;;;;7332760;19;109952;-73
2023/06/03 04:25:31;;;;;;;;;;;13.50;99.90;;;;;;7332573;19;109544;-73
2023/06/03 04:27:58;;;;;;;;;;;13.50;99.90;;;;;;7333020;19;110932;-74
2023/06/03 04:30:25;;;;;;;;;;;13.50;99.90;;;;;;7334732;19;111902;-74
2023/06/03 04:32:52;;;;;;;;;;;13.50;99.90;;;;;;7335924;19;110416;-73
2023/06/03 04:35:19;;;;;;;;;;;13.50;99.90;;;;;;7332298;19;110532;-73
2023/06/03 04:37:46;;;;;;;;;;;13.60;99.90;;;;;;7334184;19;109429;-74
2023/06/03 04:40:13;;;;;;;;;;;13.60;99.90;;;;;;7337345;19;110445;-73
2023/06/03 04:42:41;;;;;;;;;;;13.60;99.90;;;;;;7333024;19;111497;-74
2023/06/03 04:45:08;;;;;;;;;;;13.60;99.90;;;;;;7331476;19;110362;-74
2023/06/03 04:47:35;;;;;;;;;;;13.70;99.90;;;;;;7335416;19;110738;-73
2023/06/03 04:50:04;;;;;;;;;;;13.80;99.90;;;;;;7333929;19;109283;-74
2023/06/03 04:52:31;;;;;;;;;;;13.80;99.90;;;;;;7333964;19;109711;-73
2023/06/03 04:54:58;;;;;;;;;;;13.90;99.90;;;;;;7332474;19;111172;-74
2023/06/03 04:57:26;;;;;;;;;;;13.90;99.90;;;;;;7329578;19;110698;-74
2023/06/03 04:59:53;;;;;;;;;;;13.80;99.90;;;;;;7340892;19;110686;-73
2023/06/03 05:02:20;;;;;;;;;;;13.90;99.90;;;;;;7328432;19;110466;-73
2023/06/03 05:04:49;;;;;;;;;;;13.90;99.90;;;;;;7333280;19;110220;-72
2023/06/03 05:07:16;;;;;;;;;;;14.00;99.90;;;;;;7329498;19;112463;-73
2023/06/03 05:09:43;;;;;;;;;;;14.00;99.90;;;;;;7333191;19;110621;-73
2023/06/03 05:12:11;;;;;;;;;;;14.10;99.90;;;;;;7330042;19;110649;-73
2023/06/03 05:14:38;;;;;;;;;;;14.10;99.90;;;;;;7333311;19;110109;-73
2023/06/03 05:17:07;;;;;;;;;;;14.10;99.90;;;;;;7330356;19;109981;-73
2023/06/03 05:19:34;;;;;;;;;;;14.20;99.90;;;;;;7331587;19;109850;-74
2023/06/03 05:22:03;;;;;;;;;;;14.30;99.90;;;;;;7338553;19;111092;-73
2023/06/03 05:24:30;;;;;;;;;;;14.30;99.90;;;;;;7330645;19;110130;-73
2023/06/03 05:26:57;;;;;;;;;;;14.30;99.90;;;;;;7332346;19;110453;-74
2023/06/03 05:29:24;;;;;;;;;;;14.40;99.90;;;;;;7334157;19;109356;-74
2023/06/03 05:31:51;;;;;;;;;;;14.50;99.90;;;;;;7330040;19;110772;-74
2023/06/03 05:34:18;;;;;;;;;;;14.50;99.90;;;;;;7333035;19;110082;-73
2023/06/03 05:36:45;;;;;;;;;;;14.60;99.90;;;;;;7329231;19;109940;-73
2023/06/03 05:39:12;;;;;;;;;;;14.70;99.90;;;;;;7332195;19;109658;-74
2023/06/03 05:41:39;;;;;;;;;;;14.70;99.90;;;;;;7332505;19;111147;-73
2023/06/03 05:44:07;;;;;;;;;;;14.80;99.90;;;;;;7336068;19;110303;-73
2023/06/03 05:46:34;;;;;;;;;;;14.90;99.90;;;;;;7328293;19;110456;-73
2023/06/03 05:49:02;;;;;;;;;;;14.90;99.90;;;;;;7332911;19;109722;-72
2023/06/03 05:51:29;;;;;;;;;;;15.00;99.90;;;;;;7326507;19;109287;-75
2023/06/03 05:53:57;;;;;;;;;;;15.10;99.90;;;;;;7331198;19;113938;-75
2023/06/03 05:56:24;;;;;;;;;;;15.20;99.90;;;;;;7330276;19;109733;-74
2023/06/03 05:58:51;;;;;;;;;;;15.20;99.90;;;;;;7333438;19;109625;-72
2023/06/03 06:01:18;;;;;;;;;;;15.30;99.90;;;;;;7329087;19;110251;-73
2023/06/03 06:03:45;;;;;;;;;;;15.50;99.90;;;;;;7330224;19;110727;-75
2023/06/03 06:06:13;;;;;;;;;;;15.50;99.90;;;;;;7333685;19;110182;-73
2023/06/03 06:08:40;;;;;;;;;;;15.50;99.90;;;;;;7331675;19;109818;-73
2023/06/03 06:11:07;;;;;;;;;;;15.60;99.90;;;;;;7329093;19;110024;-74
2023/06/03 06:13:34;;;;;;;;;;;15.70;99.90;;;;;;7326900;19;112206;-74
2023/06/03 06:16:04;;;;;;;;;;;15.70;99.90;;;;;;7332251;19;110579;-74
2023/06/03 06:18:32;;;;;;;;;;;15.80;99.90;;;;;;7328164;19;110917;-74
2023/06/03 06:20:59;;;;;;;;;;;15.90;99.90;;;;;;7326993;19;111107;-75
2023/06/03 06:23:26;;;;;;;;;;;16.10;99.90;;;;;;7327007;19;109563;-74
2023/06/03 06:25:54;;;;;;;;;;;16.20;99.90;;;;;;7330598;19;110401;-74
2023/06/03 06:28:26;;;;;;;;;;;16.30;99.90;;;;;;7334312;19;110619;-74
2023/06/03 06:30:55;;;;;;;;;;;16.30;99.90;;;;;;7327290;19;109636;-74
2023/06/03 06:33:22;;;;;;;;;;;16.40;99.90;;;;;;7329445;19;110212;-75
2023/06/03 06:35:49;;;;;;;;;;;16.50;99.90;;;;;;7332019;19;109352;-74
2023/06/03 06:38:16;;;;;;;;;;;16.50;99.90;;;;;;7330395;19;110102;-74
2023/06/03 06:40:45;;;;;;;;;;;16.50;99.90;;;;;;7333057;19;110714;-74
2023/06/03 06:43:13;;;;;;;;;;;16.60;99.90;;;;;;7330160;19;109489;-75
2023/06/03 06:45:40;;;;;;;;;;;16.70;99.90;;;;;;7329729;19;111581;-74
2023/06/03 06:48:08;;;;;;;;;;;16.80;99.90;;;;;;7331554;19;111221;-75
2023/06/03 06:50:46;;;;;;;;;;;17.00;99.90;;;;;;7333456;19;114045;-74
2023/06/03 06:53:14;;;;;;;;;;;17.10;99.90;;;;;;7328967;19;110620;-74
2023/06/03 06:55:44;;;;;;;;;;;17.20;99.90;;;;;;7329037;19;110533;-75
2023/06/03 06:58:13;;;;;;;;;;;17.20;99.90;;;;;;7331154;19;112438;-74
2023/06/03 07:00:40;;;;;;;;;;;17.20;99.90;;;;;;7330820;19;110283;-75
2023/06/03 07:03:08;;;;;;;;;;;17.30;99.90;;;;;;7328743;19;109771;-75
2023/06/03 07:05:35;;;;;;;;;;;17.40;99.90;;;;;;7328490;19;111201;-74
2023/06/03 07:08:02;;;;;;;;;;;17.40;99.90;;;;;;7333375;19;112633;-74
2023/06/03 07:10:29;;;;;;;;;;;17.40;99.90;;;;;;7340144;19;109583;-75
2023/06/03 07:12:57;;;;;;;;;;;17.40;99.90;;;;;;7336546;19;110152;-75
2023/06/03 07:15:24;;;;;;;;;;;17.50;99.90;;;;;;7334874;19;109936;-74
2023/06/03 07:17:52;;;;;;;;;;;17.60;99.90;;;;;;7336759;19;111737;-75
2023/06/03 07:20:21;;;;;;;;;;;17.60;99.90;;;;;;7336145;19;110719;-75
2023/06/03 07:22:48;;;;;;;;;;;17.80;99.90;;;;;;7335642;19;111048;-75
2023/06/03 07:25:24;;;;;;;;;;;17.90;99.90;;;;;;7336449;19;110105;-75
2023/06/03 07:27:51;;;;;;;;;;;17.90;99.90;;;;;;7336120;19;111414;-76
2023/06/03 07:30:18;;;;;;;;;;;17.90;99.90;;;;;;7336492;19;111279;-76
2023/06/03 07:32:46;;;;;;;;;;;18.00;99.90;;;;;;7341500;19;111465;-75
2023/06/03 07:35:17;;;;;;;;;;;18.10;99.90;;;;;;7335524;19;111120;-75
2023/06/03 07:37:44;;;;;;;;;;;18.10;99.90;;;;;;7336445;19;109594;-74
2023/06/03 07:40:17;;;;;;;;;;;18.10;99.90;;;;;;7334692;19;110114;-75
2023/06/03 07:42:47;;;;;;;;;;;18.20;99.90;;;;;;7334067;19;110014;-75
2023/06/03 07:45:14;;;;;;;;;;;18.20;99.90;;;;;;7333898;19;110865;-75
2023/06/03 07:47:41;;;;;;;;;;;18.30;99.90;;;;;;7333292;19;113861;-75
2023/06/03 07:50:23;;;;;;;;;;;18.40;99.90;;;;;;7335246;19;109908;-76
2023/06/03 07:52:58;;;;;;;;;;;18.40;99.90;;;;;;7336218;19;115503;-75
2023/06/03 07:55:25;;;;;;;;;;;18.50;99.90;;;;;;7340860;19;113319;-74
2023/06/03 07:57:52;;;;;;;;;;;18.50;99.90;;;;;;7334540;19;111215;-75
2023/06/03 08:00:20;;;;;;;;;;;18.70;99.90;;;;;;7335961;19;110156;-75
2023/06/03 08:02:47;;;;;;;;;;;18.70;99.90;;;;;;7335564;19;109893;-78
2023/06/03 08:05:15;;;;;;;;;;;18.90;99.90;;;;;;7335055;19;111070;-76
2023/06/03 08:07:43;;;;;;;;;;;18.90;99.60;;;;;;7337684;19;112126;-77
2023/06/03 08:10:19;;;;;;;;;;;19.00;99.20;;;;;;7336722;19;111372;-75
2023/06/03 08:12:46;;;;;;;;;;;19.10;98.60;;;;;;7338627;19;110171;-77
2023/06/03 08:15:35;;;;;;;;;;;19.20;98.70;;;;;;7333326;19;111325;-76
2023/06/03 08:18:05;;;;;;;;;;;19.30;97.20;;;;;;7339436;19;112068;-75
2023/06/03 08:20:36;;;;;;;;;;;19.30;98.30;;;;;;7333717;19;111369;-78
2023/06/03 08:23:04;;;;;;;;;;;19.40;99.60;;;;;;7334856;19;109771;-78
2023/06/03 08:25:31;;;;;;;;;;;19.60;99.00;;;;;;7333332;19;111217;-77
2023/06/03 08:27:58;;;;;;;;;;;19.70;98.90;;;;;;7330731;19;111442;-78
2023/06/03 08:30:25;;;;;;;;;;;19.80;98.60;;;;;;7331618;19;109967;-76
2023/06/03 08:32:52;;;;;;;;;;;19.90;97.60;;;;;;7335319;19;110212;-77
2023/06/03 08:35:21;;;;;;;;;;;20.00;98.40;;;;;;7333126;19;111476;-78
2023/06/03 08:37:56;;;;;;;;;;;20.10;97.10;;;;;;7341177;19;109989;-77
2023/06/03 08:40:25;;;;;;;;;;;20.20;96.10;;;;;;7338080;19;110898;-78
2023/06/03 08:42:55;;;;;;;;;;;20.20;95.70;;;;;;7336123;19;109596;-77
2023/06/03 08:45:23;;;;;;;;;;;20.20;95.50;;;;;;7335212;19;111420;-77
2023/06/03 08:47:50;;;;;;;;;;;20.30;95.50;;;;;;7333807;19;112094;-77
2023/06/03 08:50:19;;;;;;;;;;;20.30;95.90;;;;;;7333154;19;110320;-76
2023/06/03 08:52:47;;;;;;;;;;;20.40;95.30;;;;;;7335537;19;110719;-77
2023/06/03 08:55:15;;;;;;;;;;;20.50;95.10;;;;;;7334167;19;111277;-76
2023/06/03 08:57:53;;;;;;;;;;;20.60;94.60;;;;;;7337082;19;109630;-76
2023/06/03 09:00:24;;;;;;;;;;;20.70;93.50;;;;;;7334605;19;109652;-76
2023/06/03 09:02:51;;;;;;;;;;;20.70;94.50;;;;;;7333323;19;110377;-76
2023/06/03 09:05:20;;;;;;;;;;;20.80;93.60;;;;;;7333159;19;109776;-77
2023/06/03 09:07:47;;;;;;;;;;;20.80;92.10;;;;;;7330844;19;110807;-71
2023/06/03 09:10:16;;;;;;;;;;;20.80;91.30;;;;;;7326273;19;110987;-71
2023/06/03 09:12:44;;;;;;;;;;;20.90;93.20;;;;;;7330802;19;110197;-70
2023/06/03 09:15:14;;;;;;;;;;;21.00;92.90;;;;;;7330700;19;112753;-70
2023/06/03 09:17:41;;;;;;;;;;;21.20;92.50;;;;;;7331544;19;110228;-71
2023/06/03 09:20:10;;;;;;;;;;;21.20;92.00;;;;;;7329124;19;111372;-70
2023/06/03 09:22:37;;;;;;;;;;;21.30;90.40;;;;;;7333164;19;110176;-70
2023/06/03 09:25:05;;;;;;;;;;;21.30;90.80;;;;;;7333423;19;110850;-70
2023/06/03 09:27:32;;;;;;;;;;;21.40;91.10;;;;;;7335600;19;110650;-70
2023/06/03 09:30:01;;;;;;;;;;;21.40;90.60;;;;;;7330235;19;109340;-70
2023/06/03 09:32:31;;;;;;;;;;;21.50;87.10;;;;;;7333421;19;109791;-70
2023/06/03 09:35:00;;;;;;;;;;;21.40;89.50;;;;;;7332770;19;112492;-72
2023/06/03 09:37:27;;;;;;;;;;;21.50;88.50;;;;;;7329867;19;111322;-72
2023/06/03 09:39:58;;;;;;;;;;;21.40;84.10;;;;;;7332949;19;109865;-72
2023/06/03 09:42:42;;;;;;;;;;;21.40;87.00;;;;;;7335359;19;111189;-72
2023/06/03 09:45:29;;;;;;;;;;;21.50;88.30;;;;;;7335604;19;110475;-71
2023/06/03 09:47:57;;;;;;;;;;;21.60;87.70;;;;;;7335171;19;110303;-72
2023/06/03 09:50:25;;;;;;;;;;;21.60;86.90;;;;;;7331375;19;110006;-71
2023/06/03 09:52:53;;;;;;;;;;;21.70;87.40;;;;;;7333912;19;110678;-71
2023/06/03 09:55:28;;;;;;;;;;;21.70;84.90;;;;;;7332206;19;110108;-71
2023/06/03 09:58:02;;;;;;;;;;;21.80;87.00;;;;;;7332250;19;111437;-71
2023/06/03 10:00:46;;;;;;;;;;;22.00;88.10;;;;;;7331213;19;110594;-71
2023/06/03 10:03:13;;;;;;;;;;;22.00;85.70;;;;;;7323523;19;110436;-74
2023/06/03 10:05:41;;;;;;;;;;;22.00;85.80;;;;;;7334007;19;110095;-74
2023/06/03 10:08:08;;;;;;;;;;;22.30;85.80;;;;;;7333178;19;110572;-73
2023/06/03 10:10:55;;;;;;;;;;;22.50;84.50;;;;;;7333062;19;110940;-74
2023/06/03 10:13:23;;;;;;;;;;;22.70;83.20;;;;;;7325492;19;109771;-69
2023/06/03 10:15:52;;;;;;;;;;;22.70;81.70;;;;;;7329235;19;111600;-69
2023/06/03 10:18:38;;;;;;;;;;;22.70;83.20;;;;;;7331455;19;111840;-68
2023/06/03 10:21:06;;;;;;;;;;;22.60;82.40;;;;;;7332446;19;111555;-69
2023/06/03 10:23:36;;;;;;;;;;;22.50;78.70;;;;;;7332874;19;111213;-69
2023/06/03 10:26:04;;;;;;;;;;;22.50;81.70;;;;;;7329551;19;110103;-73
2023/06/03 10:28:31;;;;;;;;;;;22.70;83.20;;;;;;7331384;19;110283;-73
2023/06/03 10:30:59;;;;;;;;;;;23.00;81.90;;;;;;7331193;19;110469;-73
2023/06/03 10:33:27;;;;;;;;;;;23.20;79.70;;;;;;7325853;19;111522;-73
2023/06/03 10:35:56;;;;;;;;;;;23.20;77.00;;;;;;7330501;19;112348;-73
2023/06/03 10:38:23;;;;;;;;;;;23.30;79.30;;;;;;7332499;19;110498;-73
2023/06/03 10:40:50;;;;;;;;;;;23.00;71.30;;;;;;7334148;19;109775;-73
2023/06/03 10:43:18;;;;;;;;;;;22.90;75.10;;;;;;7338073;19;111157;-72
2023/06/03 10:45:45;;;;;;;;;;;23.00;73.90;;;;;;7341663;19;109632;-73
2023/06/03 10:48:14;;;;;;;;;;;23.00;78.10;;;;;;7339570;19;111125;-73
2023/06/03 10:50:53;;;;;;;;;;;23.10;78.10;;;;;;7336150;19;110242;-73
2023/06/03 10:53:26;;;;;;;;;;;23.30;77.80;;;;;;7340845;19;109875;-74
2023/06/03 10:56:13;;;;;;;;;;;23.30;77.00;;;;;;7338829;19;110184;-72
2023/06/03 10:58:42;;;;;;;;;;;23.50;78.20;;;;;;7339334;19;109401;-71
2023/06/03 11:01:09;;;;;;;;;;;23.60;78.20;;;;;;7336583;19;109957;-72
2023/06/03 11:03:55;;;;;;;;;;;23.70;75.00;;;;;;7339811;19;113300;-72
2023/06/03 11:06:22;;;;;;;;;;;23.60;75.00;;;;;;7339641;19;109979;-71
2023/06/03 11:09:05;;;;;;;;;;;23.70;76.20;;;;;;7337949;19;110306;-71
2023/06/03 11:11:38;;;;;;;;;;;23.80;75.50;;;;;;7337888;19;110106;-70
2023/06/03 11:14:06;;;;;;;;;;;23.90;74.70;;;;;;7340667;19;109641;-72
2023/06/03 11:16:52;;;;;;;;;;;23.90;74.20;;;;;;7344078;19;109681;-71
2023/06/03 11:19:29;;;;;;;;;;;24.00;75.70;;;;;;7334767;19;109674;-71
2023/06/03 11:21:57;;;;;;;;;;;23.90;69.90;;;;;;7337150;19;109491;-71
2023/06/03 11:24:42;;;;;;;;;;;23.90;72.60;;;;;;7335719;19;110724;-71
2023/06/03 11:27:10;;;;;;;;;;;23.80;69.30;;;;;;7338871;19;110983;-71
2023/06/03 11:29:45;;;;;;;;;;;23.80;71.40;;;;;;7339182;19;110826;-72
2023/06/03 11:32:13;;;;;;;;;;;23.80;69.90;;;;;;7338041;19;111021;-71
2023/06/03 11:34:40;;;;;;;;;;;23.90;72.70;;;;;;7340402;19;110896;-71
2023/06/03 11:37:08;;;;;;;;;;;24.10;69.10;;;;;;7343473;19;110798;-72
2023/06/03 11:39:54;;;;;;;;;;;24.10;70.10;;;;;;7337293;19;109518;-72
2023/06/03 11:42:21;;;;;;;;;;;24.10;67.40;;;;;;7332916;19;110120;-72
2023/06/03 11:44:48;;;;;;;;;;;24.10;71.80;;;;;;7335703;19;110351;-73
2023/06/03 11:47:15;;;;;;;;;;;24.20;71.20;;;;;;7335749;19;110822;-71
2023/06/03 11:49:42;;;;;;;;;;;24.30;68.80;;;;;;7338784;19;109314;-70
2023/06/03 11:52:10;;;;;;;;;;;24.40;71.20;;;;;;7336774;19;111370;-71
2023/06/03 11:54:38;;;;;;;;;;;24.50;70.00;;;;;;7338642;19;110557;-70
2023/06/03 11:57:07;;;;;;;;;;;24.60;68.00;;;;;;7338043;19;110041;-71
2023/06/03 11:59:42;;;;;;;;;;;24.60;66.60;;;;;;7343020;19;110305;-72
2023/06/03 12:02:10;;;;;;;;;;;24.60;68.20;;;;;;7336554;19;109356;-71
2023/06/03 12:04:37;;;;;;;;;;;24.70;70.20;;;;;;7339147;19;113124;-72
2023/06/03 12:07:11;;;;;;;;;;;24.80;67.80;;;;;;7338243;19;110050;-72
2023/06/03 12:09:38;;;;;;;;;;;24.80;65.10;;;;;;7338736;19;109828;-71
2023/06/03 12:12:07;;;;;;;;;;;24.80;66.50;;;;;;7332137;19;110755;-73
2023/06/03 12:14:37;;;;;;;;;;;24.90;68.70;;;;;;7329412;19;110756;-71
2023/06/03 12:17:13;;;;;;;;;;;25.00;67.50;;;;;;7333346;19;109939;-69
2023/06/03 12:19:41;;;;;;;;;;;25.10;64.50;;;;;;7330814;19;111047;-69
2023/06/03 12:22:10;;;;;;;;;;;24.90;61.50;;;;;;7342596;19;109862;-72
2023/06/03 12:24:42;;;;;;;;;;;25.00;64.00;;;;;;7334136;19;110096;-72
2023/06/03 12:27:13;;;;;;;;;;;25.10;64.10;;;;;;7334170;19;109445;-71
2023/06/03 12:29:44;;;;;;;;;;;25.20;64.90;;;;;;7338960;19;110526;-71
2023/06/03 12:32:11;;;;;;;;;;;25.30;63.50;;;;;;7331021;19;110975;-70
2023/06/03 12:34:38;;;;;;;;;;;25.30;63.20;;;;;;7336949;19;110774;-71
2023/06/03 12:37:06;;;;;;;;;;;25.40;64.50;;;;;;7335554;19;111018;-71
2023/06/03 12:39:43;;;;;;;;;;;25.50;62.90;;;;;;7337501;19;110669;-70
2023/06/03 12:42:11;;;;;;;;;;;25.40;61.50;;;;;;7333840;19;112209;-70
2023/06/03 12:44:43;;;;;;;;;;;25.40;63.40;;;;;;7339347;19;110752;-70
2023/06/03 12:47:10;;;;;;;;;;;25.60;63.10;;;;;;7333447;19;110295;-71
2023/06/03 12:49:37;;;;;;;;;;;25.80;64.00;;;;;;7333219;19;110176;-70
2023/06/03 12:52:11;;;;;;;;;;;25.90;62.70;;;;;;7334569;19;110779;-70
2023/06/03 12:54:47;;;;;;;;;;;25.90;59.30;;;;;;7332333;19;109844;-69
2023/06/03 12:57:15;;;;;;;;;;;25.80;58.60;;;;;;7335958;19;110115;-70
2023/06/03 13:00:06;;;;;;;;;;;25.70;59.60;;;;;;7333810;19;111129;-72
2023/06/03 13:02:34;;;;;;;;;;;25.80;61.50;;;;;;7335306;19;110464;-70
2023/06/03 13:05:01;;;;;;;;;;;25.90;61.90;;;;;;7333903;19;112437;-72
2023/06/03 13:07:29;;;;;;;;;;;26.10;59.60;;;;;;7339843;19;110078;-70
2023/06/03 13:09:58;;;;;;;;;;;26.10;59.70;;;;;;7336341;19;109912;-71
2023/06/03 13:12:26;;;;;;;;;;;26.30;60.60;;;;;;7330065;19;110449;-70
2023/06/03 13:14:54;;;;;;;;;;;26.40;58.60;;;;;;7334657;19;111074;-71
2023/06/03 13:17:21;;;;;;;;;;;26.30;58.10;;;;;;7334706;19;114482;-70
2023/06/03 13:19:49;;;;;;;;;;;26.30;59.40;;;;;;7332994;19;110702;-70
2023/06/03 13:22:16;;;;;;;;;;;26.40;59.50;;;;;;7335172;19;112619;-70
2023/06/03 13:24:44;;;;;;;;;;;26.50;59.30;;;;;;7334458;19;110124;-70
2023/06/03 13:27:11;;;;;;;;;;;26.60;59.20;;;;;;7333021;19;112714;-69
2023/06/03 13:29:39;;;;;;;;;;;26.80;61.20;;;;;;7342761;19;110407;-70
2023/06/03 13:32:06;;;;;;;;;;;26.80;57.30;;;;;;7329810;19;110909;-69
2023/06/03 13:34:36;;;;;;;;;;;26.90;57.40;;;;;;7335751;19;109943;-69
2023/06/03 13:37:05;;;;;;;;;;;26.70;56.00;;;;;;7333320;19;110011;-69
2023/06/03 13:39:32;;;;;;;;;;;26.70;56.00;;;;;;7333349;19;111325;-70
2023/06/03 13:42:01;;;;;;;;;;;26.60;56.60;;;;;;7331347;19;110604;-70
2023/06/03 13:44:31;;;;;;;;;;;26.70;58.30;;;;;;7326089;19;115982;-69
2023/06/03 13:46:59;;;;;;;;;;;26.70;56.80;;;;;;7327645;19;111340;-69
2023/06/03 13:49:26;;;;;;;;;;;26.70;56.90;;;;;;7339930;19;115302;-69
2023/06/03 13:51:54;;;;;;;;;;;26.80;56.20;;;;;;7331555;19;110367;-69
2023/06/03 13:54:21;;;;;;;;;;;26.80;54.80;;;;;;7331615;19;109890;-70
2023/06/03 13:56:58;;;;;;;;;;;27.00;55.80;;;;;;7316932;19;109963;-70
2023/06/03 13:59:25;;;;;;;;;;;27.00;55.80;;;;;;7328629;19;110690;-69
2023/06/03 14:01:52;;;;;;;;;;;27.00;57.50;;;;;;7332161;19;112906;-70
2023/06/03 14:04:20;;;;;;;;;;;26.90;54.30;;;;;;7331384;19;110411;-69
2023/06/03 14:06:52;;;;;;;;;;;26.90;56.00;;;;;;7333055;19;110337;-69
2023/06/03 14:09:19;;;;;;;;;;;27.10;55.20;;;;;;7332241;19;109584;-70
2023/06/03 14:11:47;;;;;;;;;;;27.20;56.50;;;;;;7334793;19;110440;-69
2023/06/03 14:14:14;;;;;;;;;;;27.20;55.90;;;;;;7331763;19;109848;-70